sensor_id;sensor_type;location;lat;lon;timestamp;P1;durP1;ratioP1;P2;durP2;ratioP2
30874;SDS011;17581;43.222;27.924;2023-03-13T00:00:27;24.05;;;9.30;;
30874;SDS011;17581;43.222;27.924;2023-03-13T00:02:53;16.48;;;7.38;;
30874;SDS011;17581;43.222;27.924;2023-03-13T00:05:18;14.60;;;7.45;;
30874;SDS011;17581;43.222;27.924;2023-03-13T00:07:43;21.85;;;7.90;;
30874;SDS011;17581;43.222;27.924;2023-03-13T00:10:09;27.23;;;7.32;;
30874;SDS011;17581;43.222;27.924;2023-03-13T00:12:34;16.73;;;7.80;;
30874;SDS011;17581;43.222;27.924;2023-03-13T00:15:00;14.45;;;6.93;;
30874;SDS011;17581;43.222;27.924;2023-03-13T00:17:25;12.73;;;7.90;;
30874;SDS011;17581;43.222;27.924;2023-03-13T00:19:51;42.90;;;12.35;;
30874;SDS011;17581;43.222;27.924;2023-03-13T00:22:16;21.13;;;9.52;;
30874;SDS011;17581;43.222;27.924;2023-03-13T00:24:42;27.95;;;8.48;;
30874;SDS011;17581;43.222;27.924;2023-03-13T00:27:07;17.38;;;8.00;;
30874;SDS011;17581;43.222;27.924;2023-03-13T00:29:33;19.70;;;8.85;;
30874;SDS011;17581;43.222;27.924;2023-03-13T00:31:59;31.73;;;8.75;;
30874;SDS011;17581;43.222;27.924;2023-03-13T00:34:25;25.10;;;9.48;;
30874;SDS011;17581;43.222;27.924;2023-03-13T00:36:51;14.38;;;8.02;;
30874;SDS011;17581;43.222;27.924;2023-03-13T00:39:18;30.10;;;9.00;;
30874;SDS011;17581;43.222;27.924;2023-03-13T00:41:44;12.00;;;8.13;;
30874;SDS011;17581;43.222;27.924;2023-03-13T00:44:09;16.50;;;7.93;;
30874;SDS011;17581;43.222;27.924;2023-03-13T00:46:35;18.70;;;8.05;;
30874;SDS011;17581;43.222;27.924;2023-03-13T00:49:01;13.68;;;8.25;;
30874;SDS011;17581;43.222;27.924;2023-03-13T00:51:27;13.52;;;8.38;;
30874;SDS011;17581;43.222;27.924;2023-03-13T00:53:56;14.63;;;8.60;;
30874;SDS011;17581;43.222;27.924;2023-03-13T00:56:26;15.10;;;7.93;;
30874;SDS011;17581;43.222;27.924;2023-03-13T00:58:52;14.02;;;7.63;;
30874;SDS011;17581;43.222;27.924;2023-03-13T01:01:22;18.10;;;7.35;;
30874;SDS011;17581;43.222;27.924;2023-03-13T01:03:51;12.88;;;7.63;;
30874;SDS011;17581;43.222;27.924;2023-03-13T01:06:18;13.82;;;7.05;;
30874;SDS011;17581;43.222;27.924;2023-03-13T01:08:46;22.20;;;8.68;;
30874;SDS011;17581;43.222;27.924;2023-03-13T01:11:13;18.63;;;9.18;;
30874;SDS011;17581;43.222;27.924;2023-03-13T01:13:44;22.55;;;9.48;;
30874;SDS011;17581;43.222;27.924;2023-03-13T01:16:14;19.90;;;9.00;;
30874;SDS011;17581;43.222;27.924;2023-03-13T01:18:42;11.50;;;6.90;;
30874;SDS011;17581;43.222;27.924;2023-03-13T01:21:10;17.98;;;8.52;;
30874;SDS011;17581;43.222;27.924;2023-03-13T01:23:36;18.45;;;11.20;;
30874;SDS011;17581;43.222;27.924;2023-03-13T01:26:03;22.60;;;10.35;;
30874;SDS011;17581;43.222;27.924;2023-03-13T01:28:29;18.38;;;10.65;;
30874;SDS011;17581;43.222;27.924;2023-03-13T01:30:56;17.50;;;10.15;;
30874;SDS011;17581;43.222;27.924;2023-03-13T01:33:21;20.33;;;11.00;;
30874;SDS011;17581;43.222;27.924;2023-03-13T01:35:47;47.40;;;12.15;;
30874;SDS011;17581;43.222;27.924;2023-03-13T01:38:12;26.92;;;12.88;;
30874;SDS011;17581;43.222;27.924;2023-03-13T01:40:47;21.63;;;9.93;;
30874;SDS011;17581;43.222;27.924;2023-03-13T01:51:26;17.20;;;10.50;;
30874;SDS011;17581;43.222;27.924;2023-03-13T01:54:03;18.17;;;9.63;;
30874;SDS011;17581;43.222;27.924;2023-03-13T01:56:37;15.93;;;9.32;;
30874;SDS011;17581;43.222;27.924;2023-03-13T01:59:14;14.73;;;8.98;;
30874;SDS011;17581;43.222;27.924;2023-03-13T02:01:44;14.32;;;9.38;;
30874;SDS011;17581;43.222;27.924;2023-03-13T02:04:11;19.83;;;10.27;;
30874;SDS011;17581;43.222;27.924;2023-03-13T02:06:40;23.35;;;9.38;;
30874;SDS011;17581;43.222;27.924;2023-03-13T02:09:10;18.17;;;8.93;;
30874;SDS011;17581;43.222;27.924;2023-03-13T02:11:49;19.00;;;8.75;;
30874;SDS011;17581;43.222;27.924;2023-03-13T02:14:29;19.98;;;10.95;;
30874;SDS011;17581;43.222;27.924;2023-03-13T02:16:58;18.63;;;10.02;;
30874;SDS011;17581;43.222;27.924;2023-03-13T02:19:30;16.52;;;9.95;;
30874;SDS011;17581;43.222;27.924;2023-03-13T02:28:04;25.63;;;10.60;;
30874;SDS011;17581;43.222;27.924;2023-03-13T02:30:30;20.05;;;10.18;;
30874;SDS011;17581;43.222;27.924;2023-03-13T02:32:56;28.00;;;10.45;;
30874;SDS011;17581;43.222;27.924;2023-03-13T02:35:23;18.10;;;8.93;;
30874;SDS011;17581;43.222;27.924;2023-03-13T02:37:50;14.77;;;8.70;;
30874;SDS011;17581;43.222;27.924;2023-03-13T02:40:20;18.67;;;7.15;;
30874;SDS011;17581;43.222;27.924;2023-03-13T02:42:50;9.55;;;5.85;;
30874;SDS011;17581;43.222;27.924;2023-03-13T02:45:18;11.07;;;6.38;;
30874;SDS011;17581;43.222;27.924;2023-03-13T02:47:44;16.85;;;6.43;;
30874;SDS011;17581;43.222;27.924;2023-03-13T02:50:10;20.90;;;7.55;;
30874;SDS011;17581;43.222;27.924;2023-03-13T02:52:40;16.10;;;8.25;;
30874;SDS011;17581;43.222;27.924;2023-03-13T02:55:14;15.70;;;7.75;;
30874;SDS011;17581;43.222;27.924;2023-03-13T02:57:42;17.30;;;7.85;;
30874;SDS011;17581;43.222;27.924;2023-03-13T03:00:08;14.05;;;7.35;;
30874;SDS011;17581;43.222;27.924;2023-03-13T03:02:37;15.85;;;7.93;;
30874;SDS011;17581;43.222;27.924;2023-03-13T03:05:03;16.70;;;8.05;;
30874;SDS011;17581;43.222;27.924;2023-03-13T03:07:29;19.95;;;9.15;;
30874;SDS011;17581;43.222;27.924;2023-03-13T03:09:55;14.48;;;8.00;;
30874;SDS011;17581;43.222;27.924;2023-03-13T03:12:20;16.45;;;9.63;;
30874;SDS011;17581;43.222;27.924;2023-03-13T03:14:46;18.33;;;10.25;;
30874;SDS011;17581;43.222;27.924;2023-03-13T03:17:12;16.92;;;8.82;;
30874;SDS011;17581;43.222;27.924;2023-03-13T03:19:37;18.75;;;9.18;;
30874;SDS011;17581;43.222;27.924;2023-03-13T03:22:02;13.57;;;8.90;;
30874;SDS011;17581;43.222;27.924;2023-03-13T03:24:28;19.27;;;9.00;;
30874;SDS011;17581;43.222;27.924;2023-03-13T03:26:53;17.88;;;7.97;;
30874;SDS011;17581;43.222;27.924;2023-03-13T03:29:19;19.52;;;10.25;;
30874;SDS011;17581;43.222;27.924;2023-03-13T03:31:44;24.75;;;11.25;;
30874;SDS011;17581;43.222;27.924;2023-03-13T03:34:10;16.63;;;9.48;;
30874;SDS011;17581;43.222;27.924;2023-03-13T03:36:35;27.63;;;10.52;;
30874;SDS011;17581;43.222;27.924;2023-03-13T03:39:00;44.65;;;13.25;;
30874;SDS011;17581;43.222;27.924;2023-03-13T03:41:26;31.23;;;11.50;;
30874;SDS011;17581;43.222;27.924;2023-03-13T03:43:51;25.10;;;11.13;;
30874;SDS011;17581;43.222;27.924;2023-03-13T03:46:17;27.20;;;10.57;;
30874;SDS011;17581;43.222;27.924;2023-03-13T03:48:42;25.13;;;11.80;;
30874;SDS011;17581;43.222;27.924;2023-03-13T03:51:08;27.70;;;10.23;;
30874;SDS011;17581;43.222;27.924;2023-03-13T03:53:33;25.40;;;13.80;;
30874;SDS011;17581;43.222;27.924;2023-03-13T03:55:58;21.95;;;12.48;;
30874;SDS011;17581;43.222;27.924;2023-03-13T03:58:25;28.15;;;11.60;;
30874;SDS011;17581;43.222;27.924;2023-03-13T04:00:50;33.08;;;12.40;;
30874;SDS011;17581;43.222;27.924;2023-03-13T04:03:16;29.90;;;12.40;;
30874;SDS011;17581;43.222;27.924;2023-03-13T04:05:41;23.38;;;13.35;;
30874;SDS011;17581;43.222;27.924;2023-03-13T04:08:07;25.88;;;13.90;;
30874;SDS011;17581;43.222;27.924;2023-03-13T04:10:33;38.38;;;14.80;;
30874;SDS011;17581;43.222;27.924;2023-03-13T04:12:59;57.15;;;39.42;;
30874;SDS011;17581;43.222;27.924;2023-03-13T04:15:25;45.70;;;19.70;;
30874;SDS011;17581;43.222;27.924;2023-03-13T04:17:50;39.58;;;16.23;;
30874;SDS011;17581;43.222;27.924;2023-03-13T04:20:16;38.03;;;15.32;;
30874;SDS011;17581;43.222;27.924;2023-03-13T04:22:41;36.50;;;16.95;;
30874;SDS011;17581;43.222;27.924;2023-03-13T04:25:07;42.88;;;17.42;;
30874;SDS011;17581;43.222;27.924;2023-03-13T04:27:33;68.78;;;17.95;;
30874;SDS011;17581;43.222;27.924;2023-03-13T04:29:59;55.65;;;18.10;;
30874;SDS011;17581;43.222;27.924;2023-03-13T04:32:24;31.73;;;13.10;;
30874;SDS011;17581;43.222;27.924;2023-03-13T04:34:50;35.05;;;13.65;;
30874;SDS011;17581;43.222;27.924;2023-03-13T04:37:16;42.03;;;13.27;;
30874;SDS011;17581;43.222;27.924;2023-03-13T04:39:41;42.10;;;13.38;;
30874;SDS011;17581;43.222;27.924;2023-03-13T04:42:08;51.70;;;14.40;;
30874;SDS011;17581;43.222;27.924;2023-03-13T04:44:34;43.92;;;15.38;;
30874;SDS011;17581;43.222;27.924;2023-03-13T04:47:00;37.75;;;15.25;;
30874;SDS011;17581;43.222;27.924;2023-03-13T04:49:26;21.25;;;12.25;;
30874;SDS011;17581;43.222;27.924;2023-03-13T04:51:51;34.55;;;12.98;;
30874;SDS011;17581;43.222;27.924;2023-03-13T04:54:17;40.17;;;13.68;;
30874;SDS011;17581;43.222;27.924;2023-03-13T04:56:42;67.07;;;14.05;;
30874;SDS011;17581;43.222;27.924;2023-03-13T04:59:09;44.60;;;14.45;;
30874;SDS011;17581;43.222;27.924;2023-03-13T05:01:36;34.95;;;13.07;;
30874;SDS011;17581;43.222;27.924;2023-03-13T05:04:01;38.97;;;16.25;;
30874;SDS011;17581;43.222;27.924;2023-03-13T05:06:26;36.38;;;16.13;;
30874;SDS011;17581;43.222;27.924;2023-03-13T05:08:52;37.90;;;15.13;;
30874;SDS011;17581;43.222;27.924;2023-03-13T05:11:17;58.22;;;15.95;;
30874;SDS011;17581;43.222;27.924;2023-03-13T05:13:43;71.43;;;15.85;;
30874;SDS011;17581;43.222;27.924;2023-03-13T05:16:08;63.33;;;16.23;;
30874;SDS011;17581;43.222;27.924;2023-03-13T05:18:34;76.40;;;16.15;;
30874;SDS011;17581;43.222;27.924;2023-03-13T05:21:00;68.43;;;18.35;;
30874;SDS011;17581;43.222;27.924;2023-03-13T05:23:26;65.30;;;17.40;;
30874;SDS011;17581;43.222;27.924;2023-03-13T05:25:52;48.13;;;17.08;;
30874;SDS011;17581;43.222;27.924;2023-03-13T05:28:17;56.83;;;17.13;;
30874;SDS011;17581;43.222;27.924;2023-03-13T05:30:43;75.43;;;18.95;;
30874;SDS011;17581;43.222;27.924;2023-03-13T05:33:08;51.20;;;20.38;;
30874;SDS011;17581;43.222;27.924;2023-03-13T05:35:34;83.38;;;26.00;;
30874;SDS011;17581;43.222;27.924;2023-03-13T05:37:59;91.45;;;24.45;;
30874;SDS011;17581;43.222;27.924;2023-03-13T05:40:24;68.63;;;26.70;;
30874;SDS011;17581;43.222;27.924;2023-03-13T05:42:50;58.75;;;25.83;;
30874;SDS011;17581;43.222;27.924;2023-03-13T05:45:17;58.38;;;25.83;;
30874;SDS011;17581;43.222;27.924;2023-03-13T05:47:43;75.60;;;26.73;;
30874;SDS011;17581;43.222;27.924;2023-03-13T05:50:09;59.00;;;27.98;;
30874;SDS011;17581;43.222;27.924;2023-03-13T05:52:35;69.13;;;30.95;;
30874;SDS011;17581;43.222;27.924;2023-03-13T05:55:00;73.60;;;32.08;;
30874;SDS011;17581;43.222;27.924;2023-03-13T05:57:25;69.28;;;29.73;;
30874;SDS011;17581;43.222;27.924;2023-03-13T05:59:51;72.65;;;30.85;;
30874;SDS011;17581;43.222;27.924;2023-03-13T06:02:16;74.32;;;28.92;;
30874;SDS011;17581;43.222;27.924;2023-03-13T06:04:42;80.10;;;32.30;;
30874;SDS011;17581;43.222;27.924;2023-03-13T06:07:07;91.88;;;33.38;;
30874;SDS011;17581;43.222;27.924;2023-03-13T06:09:33;69.93;;;29.45;;
30874;SDS011;17581;43.222;27.924;2023-03-13T06:11:58;84.68;;;31.90;;
30874;SDS011;17581;43.222;27.924;2023-03-13T06:14:24;70.57;;;28.98;;
30874;SDS011;17581;43.222;27.924;2023-03-13T06:16:49;68.55;;;31.25;;
30874;SDS011;17581;43.222;27.924;2023-03-13T06:19:15;100.25;;;32.67;;
30874;SDS011;17581;43.222;27.924;2023-03-13T06:21:40;82.93;;;33.58;;
30874;SDS011;17581;43.222;27.924;2023-03-13T06:24:06;110.38;;;33.58;;
30874;SDS011;17581;43.222;27.924;2023-03-13T06:26:31;108.57;;;34.33;;
30874;SDS011;17581;43.222;27.924;2023-03-13T06:28:57;85.20;;;31.02;;
30874;SDS011;17581;43.222;27.924;2023-03-13T06:31:22;85.32;;;29.70;;
30874;SDS011;17581;43.222;27.924;2023-03-13T06:33:51;79.43;;;30.45;;
30874;SDS011;17581;43.222;27.924;2023-03-13T06:36:23;66.90;;;29.98;;
30874;SDS011;17581;43.222;27.924;2023-03-13T06:38:49;69.25;;;31.90;;
30874;SDS011;17581;43.222;27.924;2023-03-13T06:41:15;80.90;;;30.20;;
30874;SDS011;17581;43.222;27.924;2023-03-13T06:43:40;71.75;;;28.08;;
30874;SDS011;17581;43.222;27.924;2023-03-13T06:46:06;64.28;;;26.23;;
30874;SDS011;17581;43.222;27.924;2023-03-13T06:48:33;76.03;;;28.95;;
30874;SDS011;17581;43.222;27.924;2023-03-13T06:50:58;103.78;;;31.40;;
30874;SDS011;17581;43.222;27.924;2023-03-13T06:53:24;80.20;;;29.23;;
30874;SDS011;17581;43.222;27.924;2023-03-13T06:55:49;87.85;;;28.92;;
30874;SDS011;17581;43.222;27.924;2023-03-13T06:58:15;79.53;;;30.77;;
30874;SDS011;17581;43.222;27.924;2023-03-13T07:00:41;66.20;;;31.67;;
30874;SDS011;17581;43.222;27.924;2023-03-13T07:03:08;81.00;;;30.10;;
30874;SDS011;17581;43.222;27.924;2023-03-13T07:05:34;59.67;;;28.63;;
30874;SDS011;17581;43.222;27.924;2023-03-13T07:08:00;74.63;;;26.63;;
30874;SDS011;17581;43.222;27.924;2023-03-13T07:10:25;62.42;;;29.63;;
30874;SDS011;17581;43.222;27.924;2023-03-13T07:12:51;71.53;;;27.85;;
30874;SDS011;17581;43.222;27.924;2023-03-13T07:15:16;67.57;;;28.92;;
30874;SDS011;17581;43.222;27.924;2023-03-13T07:17:42;94.50;;;29.73;;
30874;SDS011;17581;43.222;27.924;2023-03-13T07:20:07;70.07;;;29.85;;
30874;SDS011;17581;43.222;27.924;2023-03-13T07:22:35;68.68;;;29.73;;
30874;SDS011;17581;43.222;27.924;2023-03-13T07:25:03;62.53;;;32.85;;
30874;SDS011;17581;43.222;27.924;2023-03-13T07:27:30;60.67;;;28.33;;
30874;SDS011;17581;43.222;27.924;2023-03-13T07:29:56;59.45;;;28.80;;
30874;SDS011;17581;43.222;27.924;2023-03-13T07:32:21;67.55;;;26.98;;
30874;SDS011;17581;43.222;27.924;2023-03-13T07:34:47;32.15;;;13.65;;
30874;SDS011;17581;43.222;27.924;2023-03-13T07:37:13;49.58;;;13.73;;
30874;SDS011;17581;43.222;27.924;2023-03-13T07:39:40;37.58;;;10.13;;
30874;SDS011;17581;43.222;27.924;2023-03-13T07:42:09;31.40;;;9.20;;
30874;SDS011;17581;43.222;27.924;2023-03-13T07:44:35;30.38;;;10.85;;
30874;SDS011;17581;43.222;27.924;2023-03-13T07:47:01;31.83;;;9.32;;
30874;SDS011;17581;43.222;27.924;2023-03-13T07:49:26;22.27;;;8.27;;
30874;SDS011;17581;43.222;27.924;2023-03-13T07:51:51;30.52;;;6.95;;
30874;SDS011;17581;43.222;27.924;2023-03-13T07:54:17;24.83;;;7.90;;
30874;SDS011;17581;43.222;27.924;2023-03-13T07:56:42;17.90;;;5.18;;
30874;SDS011;17581;43.222;27.924;2023-03-13T07:59:08;19.80;;;6.40;;
30874;SDS011;17581;43.222;27.924;2023-03-13T08:01:34;30.42;;;6.63;;
30874;SDS011;17581;43.222;27.924;2023-03-13T08:03:59;16.80;;;3.13;;
30874;SDS011;17581;43.222;27.924;2023-03-13T08:06:25;5.78;;;2.40;;
30874;SDS011;17581;43.222;27.924;2023-03-13T08:08:55;21.25;;;3.83;;
30874;SDS011;17581;43.222;27.924;2023-03-13T08:11:22;10.95;;;2.63;;
30874;SDS011;17581;43.222;27.924;2023-03-13T08:13:49;33.40;;;7.90;;
30874;SDS011;17581;43.222;27.924;2023-03-13T08:16:17;13.10;;;2.85;;
30874;SDS011;17581;43.222;27.924;2023-03-13T08:18:44;45.67;;;5.65;;
30874;SDS011;17581;43.222;27.924;2023-03-13T08:21:13;12.98;;;2.22;;
30874;SDS011;17581;43.222;27.924;2023-03-13T08:23:41;23.10;;;3.10;;
30874;SDS011;17581;43.222;27.924;2023-03-13T08:26:07;18.77;;;2.83;;
30874;SDS011;17581;43.222;27.924;2023-03-13T08:28:40;12.70;;;2.75;;
30874;SDS011;17581;43.222;27.924;2023-03-13T08:31:19;33.22;;;3.75;;
30874;SDS011;17581;43.222;27.924;2023-03-13T08:33:49;8.50;;;2.50;;
30874;SDS011;17581;43.222;27.924;2023-03-13T08:36:16;7.13;;;1.98;;
30874;SDS011;17581;43.222;27.924;2023-03-13T08:38:50;14.40;;;3.03;;
30874;SDS011;17581;43.222;27.924;2023-03-13T08:41:17;29.75;;;3.60;;
30874;SDS011;17581;43.222;27.924;2023-03-13T08:43:45;10.40;;;2.45;;
30874;SDS011;17581;43.222;27.924;2023-03-13T08:46:11;24.33;;;3.17;;
30874;SDS011;17581;43.222;27.924;2023-03-13T08:48:38;10.52;;;2.08;;
30874;SDS011;17581;43.222;27.924;2023-03-13T08:51:07;44.67;;;6.10;;
30874;SDS011;17581;43.222;27.924;2023-03-13T08:53:35;38.40;;;5.15;;
30874;SDS011;17581;43.222;27.924;2023-03-13T08:56:02;25.95;;;2.83;;
30874;SDS011;17581;43.222;27.924;2023-03-13T08:58:29;14.60;;;2.20;;
30874;SDS011;17581;43.222;27.924;2023-03-13T09:01:00;12.27;;;2.17;;
30874;SDS011;17581;43.222;27.924;2023-03-13T09:05:52;15.65;;;2.70;;
30874;SDS011;17581;43.222;27.924;2023-03-13T09:08:18;26.25;;;4.38;;
30874;SDS011;17581;43.222;27.924;2023-03-13T09:10:43;21.02;;;3.55;;
30874;SDS011;17581;43.222;27.924;2023-03-13T09:13:08;9.07;;;2.60;;
30874;SDS011;17581;43.222;27.924;2023-03-13T09:15:34;25.80;;;5.28;;
30874;SDS011;17581;43.222;27.924;2023-03-13T09:18:00;13.35;;;3.10;;
30874;SDS011;17581;43.222;27.924;2023-03-13T09:20:25;16.75;;;4.10;;
30874;SDS011;17581;43.222;27.924;2023-03-13T09:22:50;23.45;;;3.13;;
30874;SDS011;17581;43.222;27.924;2023-03-13T09:25:16;15.43;;;3.15;;
30874;SDS011;17581;43.222;27.924;2023-03-13T09:27:41;12.20;;;2.35;;
30874;SDS011;17581;43.222;27.924;2023-03-13T09:30:07;27.92;;;3.70;;
30874;SDS011;17581;43.222;27.924;2023-03-13T09:32:33;16.25;;;2.20;;
30874;SDS011;17581;43.222;27.924;2023-03-13T09:34:58;15.15;;;3.38;;
30874;SDS011;17581;43.222;27.924;2023-03-13T09:37:24;13.93;;;3.30;;
30874;SDS011;17581;43.222;27.924;2023-03-13T09:40:13;21.48;;;5.10;;
30874;SDS011;17581;43.222;27.924;2023-03-13T09:42:43;17.67;;;3.40;;
30874;SDS011;17581;43.222;27.924;2023-03-13T09:45:15;16.20;;;4.20;;
30874;SDS011;17581;43.222;27.924;2023-03-13T09:47:49;26.95;;;7.50;;
30874;SDS011;17581;43.222;27.924;2023-03-13T09:50:23;16.10;;;3.03;;
30874;SDS011;17581;43.222;27.924;2023-03-13T09:52:54;32.35;;;7.47;;
30874;SDS011;17581;43.222;27.924;2023-03-13T09:55:27;14.23;;;4.13;;
30874;SDS011;17581;43.222;27.924;2023-03-13T09:57:55;26.25;;;4.32;;
30874;SDS011;17581;43.222;27.924;2023-03-13T10:00:29;16.02;;;3.63;;
30874;SDS011;17581;43.222;27.924;2023-03-13T10:02:56;10.80;;;2.38;;
30874;SDS011;17581;43.222;27.924;2023-03-13T10:05:42;6.72;;;2.78;;
30874;SDS011;17581;43.222;27.924;2023-03-13T10:08:22;23.42;;;3.35;;
30874;SDS011;17581;43.222;27.924;2023-03-13T10:11:23;15.73;;;3.28;;
30874;SDS011;17581;43.222;27.924;2023-03-13T10:13:57;9.43;;;2.35;;
30874;SDS011;17581;43.222;27.924;2023-03-13T10:22:34;26.10;;;3.72;;
30874;SDS011;17581;43.222;27.924;2023-03-13T10:25:18;7.28;;;2.70;;
30874;SDS011;17581;43.222;27.924;2023-03-13T10:27:51;13.00;;;2.55;;
30874;SDS011;17581;43.222;27.924;2023-03-13T10:30:27;10.63;;;2.58;;
30874;SDS011;17581;43.222;27.924;2023-03-13T10:32:58;19.98;;;2.35;;
30874;SDS011;17581;43.222;27.924;2023-03-13T10:35:40;12.63;;;2.50;;
30874;SDS011;17581;43.222;27.924;2023-03-13T10:38:10;17.23;;;3.08;;
30874;SDS011;17581;43.222;27.924;2023-03-13T10:40:36;31.67;;;4.30;;
30874;SDS011;17581;43.222;27.924;2023-03-13T10:43:11;101.50;;;14.77;;
30874;SDS011;17581;43.222;27.924;2023-03-13T10:45:41;17.65;;;3.55;;
30874;SDS011;17581;43.222;27.924;2023-03-13T10:48:11;15.90;;;3.10;;
30874;SDS011;17581;43.222;27.924;2023-03-13T10:50:44;14.63;;;2.85;;
30874;SDS011;17581;43.222;27.924;2023-03-13T10:55:54;17.50;;;3.55;;
30874;SDS011;17581;43.222;27.924;2023-03-13T10:58:41;24.83;;;2.90;;
30874;SDS011;17581;43.222;27.924;2023-03-13T11:01:39;10.48;;;2.60;;
30874;SDS011;17581;43.222;27.924;2023-03-13T11:09:30;15.43;;;4.32;;
30874;SDS011;17581;43.222;27.924;2023-03-13T11:12:13;19.55;;;3.13;;
30874;SDS011;17581;43.222;27.924;2023-03-13T11:14:44;17.13;;;3.13;;
30874;SDS011;17581;43.222;27.924;2023-03-13T11:32:59;12.63;;;2.80;;
30874;SDS011;17581;43.222;27.924;2023-03-13T11:35:49;18.05;;;3.28;;
30874;SDS011;17581;43.222;27.924;2023-03-13T11:38:18;12.80;;;2.72;;
30874;SDS011;17581;43.222;27.924;2023-03-13T11:46:17;13.48;;;2.88;;
30874;SDS011;17581;43.222;27.924;2023-03-13T11:51:25;23.75;;;3.63;;
30874;SDS011;17581;43.222;27.924;2023-03-13T11:56:57;5.82;;;2.30;;
30874;SDS011;17581;43.222;27.924;2023-03-13T12:02:27;24.27;;;3.67;;
30874;SDS011;17581;43.222;27.924;2023-03-13T12:04:58;8.48;;;2.03;;
30874;SDS011;17581;43.222;27.924;2023-03-13T12:09:54;15.38;;;2.13;;
30874;SDS011;17581;43.222;27.924;2023-03-13T12:12:36;15.17;;;2.40;;
30874;SDS011;17581;43.222;27.924;2023-03-13T12:18:08;10.65;;;2.30;;
30874;SDS011;17581;43.222;27.924;2023-03-13T12:20:43;15.18;;;3.22;;
30874;SDS011;17581;43.222;27.924;2023-03-13T12:26:18;18.42;;;6.40;;
30874;SDS011;17581;43.222;27.924;2023-03-13T12:34:28;13.68;;;2.33;;
30874;SDS011;17581;43.222;27.924;2023-03-13T12:37:05;16.08;;;2.65;;
30874;SDS011;17581;43.222;27.924;2023-03-13T12:39:34;20.08;;;2.22;;
30874;SDS011;17581;43.222;27.924;2023-03-13T12:45:05;16.52;;;3.42;;
30874;SDS011;17581;43.222;27.924;2023-03-13T12:50:38;14.15;;;3.53;;
30874;SDS011;17581;43.222;27.924;2023-03-13T13:00:52;16.23;;;2.72;;
30874;SDS011;17581;43.222;27.924;2023-03-13T13:03:30;16.80;;;3.00;;
30874;SDS011;17581;43.222;27.924;2023-03-13T13:06:12;26.25;;;3.88;;
30874;SDS011;17581;43.222;27.924;2023-03-13T13:14:01;17.95;;;3.03;;
30874;SDS011;17581;43.222;27.924;2023-03-13T13:16:57;10.10;;;2.40;;
30874;SDS011;17581;43.222;27.924;2023-03-13T13:25:01;7.35;;;2.53;;
30874;SDS011;17581;43.222;27.924;2023-03-13T13:27:52;7.65;;;2.13;;
30874;SDS011;17581;43.222;27.924;2023-03-13T13:32:43;14.82;;;2.97;;
30874;SDS011;17581;43.222;27.924;2023-03-13T13:35:24;15.60;;;2.80;;
30874;SDS011;17581;43.222;27.924;2023-03-13T13:37:50;6.63;;;2.00;;
30874;SDS011;17581;43.222;27.924;2023-03-13T13:45:19;31.80;;;3.92;;
30874;SDS011;17581;43.222;27.924;2023-03-13T13:50:43;3.80;;;2.00;;
30874;SDS011;17581;43.222;27.924;2023-03-13T14:01:45;15.25;;;3.15;;
30874;SDS011;17581;43.222;27.924;2023-03-13T14:07:02;11.65;;;2.25;;
30874;SDS011;17581;43.222;27.924;2023-03-13T14:15:09;20.50;;;2.67;;
30874;SDS011;17581;43.222;27.924;2023-03-13T14:17:41;14.25;;;2.80;;
30874;SDS011;17581;43.222;27.924;2023-03-13T14:23:02;10.10;;;3.22;;
30874;SDS011;17581;43.222;27.924;2023-03-13T14:25:40;27.73;;;2.00;;
30874;SDS011;17581;43.222;27.924;2023-03-13T14:30:52;9.80;;;3.15;;
30874;SDS011;17581;43.222;27.924;2023-03-13T14:33:22;7.35;;;2.17;;
30874;SDS011;17581;43.222;27.924;2023-03-13T14:35:50;12.82;;;2.88;;
30874;SDS011;17581;43.222;27.924;2023-03-13T14:38:17;25.45;;;3.75;;
30874;SDS011;17581;43.222;27.924;2023-03-13T14:40:48;13.43;;;3.15;;
30874;SDS011;17581;43.222;27.924;2023-03-13T14:45:43;11.25;;;2.70;;
30874;SDS011;17581;43.222;27.924;2023-03-13T14:50:40;8.30;;;2.50;;
30874;SDS011;17581;43.222;27.924;2023-03-13T14:53:15;9.95;;;2.10;;
30874;SDS011;17581;43.222;27.924;2023-03-13T14:55:45;5.43;;;2.00;;
30874;SDS011;17581;43.222;27.924;2023-03-13T15:00:43;10.45;;;3.05;;
30874;SDS011;17581;43.222;27.924;2023-03-13T15:05:40;12.25;;;3.65;;
30874;SDS011;17581;43.222;27.924;2023-03-13T15:08:12;31.70;;;3.42;;
30874;SDS011;17581;43.222;27.924;2023-03-13T15:10:39;14.90;;;2.95;;
30874;SDS011;17581;43.222;27.924;2023-03-13T15:18:25;42.17;;;15.40;;
30874;SDS011;17581;43.222;27.924;2023-03-13T15:20:53;13.73;;;4.28;;
30874;SDS011;17581;43.222;27.924;2023-03-13T15:23:20;20.83;;;3.85;;
30874;SDS011;17581;43.222;27.924;2023-03-13T15:25:46;12.10;;;2.35;;
30874;SDS011;17581;43.222;27.924;2023-03-13T15:30:41;43.97;;;6.10;;
30874;SDS011;17581;43.222;27.924;2023-03-13T15:33:11;29.02;;;4.18;;
30874;SDS011;17581;43.222;27.924;2023-03-13T15:35:38;16.38;;;3.47;;
30874;SDS011;17581;43.222;27.924;2023-03-13T15:38:05;34.15;;;5.80;;
30874;SDS011;17581;43.222;27.924;2023-03-13T15:40:34;10.55;;;3.63;;
30874;SDS011;17581;43.222;27.924;2023-03-13T15:43:00;28.48;;;3.83;;
30874;SDS011;17581;43.222;27.924;2023-03-13T15:45:26;24.88;;;4.15;;
30874;SDS011;17581;43.222;27.924;2023-03-13T15:47:52;21.60;;;4.38;;
30874;SDS011;17581;43.222;27.924;2023-03-13T15:50:18;26.55;;;5.18;;
30874;SDS011;17581;43.222;27.924;2023-03-13T15:52:46;9.50;;;3.67;;
30874;SDS011;17581;43.222;27.924;2023-03-13T15:55:12;51.58;;;5.85;;
30874;SDS011;17581;43.222;27.924;2023-03-13T15:57:40;32.15;;;6.20;;
30874;SDS011;17581;43.222;27.924;2023-03-13T16:00:14;16.58;;;4.90;;
30874;SDS011;17581;43.222;27.924;2023-03-13T16:02:44;24.75;;;5.80;;
30874;SDS011;17581;43.222;27.924;2023-03-13T16:05:09;17.40;;;5.20;;
30874;SDS011;17581;43.222;27.924;2023-03-13T16:07:35;31.08;;;6.25;;
30874;SDS011;17581;43.222;27.924;2023-03-13T16:10:00;51.03;;;5.10;;
30874;SDS011;17581;43.222;27.924;2023-03-13T16:12:26;19.33;;;5.65;;
30874;SDS011;17581;43.222;27.924;2023-03-13T16:14:51;40.92;;;6.15;;
30874;SDS011;17581;43.222;27.924;2023-03-13T16:17:18;25.67;;;5.28;;
30874;SDS011;17581;43.222;27.924;2023-03-13T16:19:45;21.08;;;4.70;;
30874;SDS011;17581;43.222;27.924;2023-03-13T16:22:12;14.75;;;4.13;;
30874;SDS011;17581;43.222;27.924;2023-03-13T16:24:38;18.13;;;4.43;;
30874;SDS011;17581;43.222;27.924;2023-03-13T16:27:11;15.70;;;3.75;;
30874;SDS011;17581;43.222;27.924;2023-03-13T16:29:41;23.52;;;4.85;;
30874;SDS011;17581;43.222;27.924;2023-03-13T16:32:09;8.68;;;4.07;;
30874;SDS011;17581;43.222;27.924;2023-03-13T16:34:36;21.15;;;4.63;;
30874;SDS011;17581;43.222;27.924;2023-03-13T16:37:01;33.83;;;6.97;;
30874;SDS011;17581;43.222;27.924;2023-03-13T16:39:33;38.13;;;4.80;;
30874;SDS011;17581;43.222;27.924;2023-03-13T16:41:59;34.28;;;5.53;;
30874;SDS011;17581;43.222;27.924;2023-03-13T16:44:24;26.00;;;5.43;;
30874;SDS011;17581;43.222;27.924;2023-03-13T16:46:50;36.78;;;6.20;;
30874;SDS011;17581;43.222;27.924;2023-03-13T16:49:15;33.47;;;5.00;;
30874;SDS011;17581;43.222;27.924;2023-03-13T16:51:40;36.67;;;6.22;;
30874;SDS011;17581;43.222;27.924;2023-03-13T16:54:06;27.38;;;5.88;;